Time;durP1;ratioP1;P1;durP2;ratioP2;P2;SDS_P1;SDS_P2;PMS_P1;PMS_P2;Temp;Humidity;BMP_temperature;BMP_pressure;BME280_temperature;BME280_humidity;BME280_pressure;Samples;Min_cycle;Max_cycle;Signal;HPM_P1;HPM_P2
2022/09/13 00:01:46;;;;;;;;;10.75;8.75;;;;;21.38;78.22;100774.81;5073009;27;50617;-85
2022/09/13 00:04:12;;;;;;;;;12.00;12.00;;;;;21.15;78.16;100732.59;5074381;28;49775;-84
2022/09/13 00:06:37;;;;;;;;;10.75;10.75;;;;;20.99;78.18;100709.84;5073122;28;49810;-85
2022/09/13 00:09:02;;;;;;;;;10.00;9.25;;;;;20.80;78.25;100673.81;5074197;27;49737;-80
2022/09/13 00:11:30;;;;;;;;;12.75;11.00;;;;;21.36;78.74;100773.09;5072611;28;50528;-87
2022/09/13 00:13:57;;;;;;;;;11.00;10.00;;;;;21.12;78.59;100740.66;5073044;27;49717;-86
2022/09/13 00:16:24;;;;;;;;;7.50;7.50;;;;;21.12;78.58;100754.00;5073370;28;50401;-89
2022/09/13 00:18:52;;;;;;;;;10.50;10.50;;;;;20.71;78.61;100692.69;5073592;28;50090;-86
2022/09/13 00:21:20;;;;;;;;;9.00;8.50;;;;;21.21;78.53;100770.72;5073210;27;51027;-87
2022/09/13 00:23:47;;;;;;;;;8.00;8.00;;;;;20.22;78.06;100608.38;5073815;28;49493;-85
2022/09/13 00:26:16;;;;;;;;;9.00;8.75;;;;;21.26;78.30;100775.09;5073806;28;49866;-77
2022/09/13 00:28:41;;;;;;;;;8.50;8.50;;;;;21.23;78.15;100769.81;5073334;28;49726;-83
2022/09/13 00:31:08;;;;;;;;;9.25;8.75;;;;;20.88;77.79;100708.31;5073434;28;49728;-87
2022/09/13 00:33:34;;;;;;;;;9.75;9.75;;;;;20.63;77.92;100674.16;5073632;28;49938;-87
2022/09/13 00:36:10;;;;;;;;;9.00;9.00;;;;;21.09;78.14;100742.53;5073940;28;49563;-90
2022/09/13 00:38:39;;;;;;;;;9.00;9.00;;;;;20.95;78.08;100733.97;5073901;28;49750;-89
2022/09/13 00:41:07;;;;;;;;;8.25;8.25;;;;;21.17;77.83;100750.38;5073738;28;51230;-84
2022/09/13 00:43:47;;;;;;;;;7.75;7.00;;;;;20.60;75.63;100641.38;5073357;27;49679;-90
2022/09/13 00:46:19;;;;;;;;;4.25;4.25;;;;;21.17;74.04;100745.03;5073624;28;49915;-90
2022/09/13 00:48:48;;;;;;;;;7.75;7.75;;;;;21.17;73.39;100743.22;5072359;28;49640;-87
2022/09/13 00:51:13;;;;;;;;;7.50;6.50;;;;;21.18;74.48;100741.44;5073491;27;49814;-81
2022/09/13 00:53:44;;;;;;;;;5.50;5.50;;;;;21.18;73.96;100747.66;5073891;27;49610;-88
2022/09/13 00:56:27;;;;;;;;;7.50;6.25;;;;;21.05;74.31;100732.84;5071077;28;50063;-77
2022/09/13 00:59:01;;;;;;;;;8.25;8.00;;;;;20.10;74.02;100584.66;5064980;28;49660;-73
2022/09/13 01:01:34;;;;;;;;;7.00;7.00;;;;;21.11;74.42;100768.25;5071038;28;49836;-73
2022/09/13 01:04:01;;;;;;;;;5.50;4.75;;;;;21.17;75.00;100747.69;5074492;27;49757;-84
2022/09/13 01:06:31;;;;;;;;;9.50;7.00;;;;;21.09;75.07;100732.72;5074648;28;49783;-84
2022/09/13 01:09:02;;;;;;;;;5.75;5.75;;;;;19.93;74.93;100534.38;5073254;27;49779;-78
2022/09/13 01:11:54;;;;;;;;;7.00;7.00;;;;;20.57;75.34;100637.00;5072252;27;49656;-82
2022/09/13 01:14:21;;;;;;;;;6.50;6.50;;;;;21.14;75.22;100735.31;5072164;28;49940;-88
2022/09/13 01:16:47;;;;;;;;;5.50;5.50;;;;;20.63;75.56;100647.50;5069779;28;49742;-74
2022/09/13 01:19:12;;;;;;;;;6.00;6.00;;;;;21.14;73.63;100717.50;5071820;28;49912;-73
2022/09/13 01:21:54;;;;;;;;;5.75;5.75;;;;;21.14;72.95;100720.16;5073726;28;49811;-73
2022/09/13 01:24:19;;;;;;;;;4.75;4.75;;;;;21.15;72.59;100713.03;5067962;28;49694;-75
2022/09/13 01:26:56;;;;;;;;;6.00;5.00;;;;;20.88;71.92;100666.50;5074115;28;49977;-73
2022/09/13 01:29:48;;;;;;;;;6.25;5.00;;;;;21.10;70.71;100704.25;5069289;28;49776;-73
2022/09/13 01:32:26;;;;;;;;;5.00;5.00;;;;;20.47;69.95;100611.44;5073945;27;51359;-73
2022/09/13 01:35:05;;;;;;;;;2.50;2.50;;;;;21.16;71.17;100706.78;5073701;28;49784;-73
2022/09/13 01:37:55;;;;;;;;;5.00;4.25;;;;;21.16;70.53;100709.44;5073713;28;50237;-73
2022/09/13 01:40:36;;;;;;;;;5.00;5.00;;;;;20.70;69.88;100626.91;5073855;28;49863;-74
2022/09/13 01:43:10;;;;;;;;;7.25;5.25;;;;;21.11;70.39;100698.00;5073403;28;49870;-72
2022/09/13 01:45:52;;;;;;;;;4.00;4.00;;;;;21.15;70.91;100711.25;5073821;28;49698;-73
2022/09/13 01:48:34;;;;;;;;;5.75;5.25;;;;;20.35;71.28;100598.31;5073915;28;49842;-73
2022/09/13 01:51:05;;;;;;;;;4.75;4.75;;;;;21.15;71.45;100705.91;5073695;28;49849;-73
2022/09/13 01:53:33;;;;;;;;;5.00;5.00;;;;;21.14;71.46;100692.59;5073758;28;49783;-80
2022/09/13 01:56:28;;;;;;;;;3.00;3.00;;;;;21.13;70.54;100690.81;5073512;27;49755;-73
2022/09/13 01:59:23;;;;;;;;;4.75;4.25;;;;;21.03;71.49;100678.59;5067157;28;49921;-74
2022/09/13 02:02:00;;;;;;;;;4.25;4.25;;;;;21.11;71.46;100693.53;5072446;27;49834;-73
2022/09/13 02:04:35;;;;;;;;;5.00;4.50;;;;;20.96;71.88;100661.00;5073431;28;52242;-73
2022/09/13 02:07:12;;;;;;;;;5.25;5.25;;;;;20.64;69.59;100611.03;5073428;28;49925;-73
2022/09/13 02:09:42;;;;;;;;;3.50;3.50;;;;;21.03;69.15;100675.94;5073919;28;49676;-78
2022/09/13 02:12:16;;;;;;;;;4.00;4.00;;;;;20.62;68.69;100613.75;5073540;28;49836;-73
2022/09/13 02:14:44;;;;;;;;;3.25;3.25;;;;;21.06;68.28;100673.22;5072957;27;50902;-73
2022/09/13 02:17:19;;;;;;;;;4.25;3.50;;;;;20.83;67.88;100637.25;5073065;28;49921;-73
2022/09/13 02:19:50;;;;;;;;;3.75;3.75;;;;;21.04;68.56;100675.06;5073254;28;49702;-73
2022/09/13 02:22:22;;;;;;;;;4.00;3.00;;;;;20.85;68.15;100642.56;5073052;28;49947;-73
2022/09/13 02:24:54;;;;;;;;;4.00;4.00;;;;;21.01;67.61;100675.97;5072945;28;49581;-73
2022/09/13 02:27:24;;;;;;;;;3.75;3.75;;;;;21.00;67.78;100670.69;5073268;27;49952;-73
2022/09/13 02:29:56;;;;;;;;;5.25;5.25;;;;;20.96;67.31;100664.53;5072168;28;49725;-72
2022/09/13 02:32:29;;;;;;;;;7.00;7.00;;;;;20.83;67.35;100661.25;5074094;28;50014;-76
2022/09/13 02:35:03;;;;;;;;;5.75;5.75;;;;;20.51;67.12;100597.13;5067309;28;51548;-73
2022/09/13 02:37:31;;;;;;;;;6.75;5.50;;;;;20.85;66.75;100659.47;5072752;28;49951;-73
2022/09/13 02:40:03;;;;;;;;;7.75;6.75;;;;;20.88;66.83;100663.84;5072898;28;49882;-73
2022/09/13 02:42:36;;;;;;;;;3.00;3.00;;;;;20.33;67.05;100603.69;5073029;27;49735;-72
2022/09/13 02:45:04;;;;;;;;;5.50;4.50;;;;;20.62;67.33;100613.75;5072604;28;51034;-73
2022/09/13 02:47:43;;;;;;;;;5.25;4.00;;;;;20.87;66.77;100651.41;5072750;28;49808;-72
2022/09/13 02:50:20;;;;;;;;;4.75;4.75;;;;;20.88;66.36;100653.16;5072501;27;49656;-73
2022/09/13 02:53:06;;;;;;;;;8.00;5.00;;;;;20.89;66.83;100649.59;5072466;28;49874;-74
2022/09/13 02:55:50;;;;;;;;;5.00;5.00;;;;;20.90;67.69;100655.78;5066632;28;50543;-73
2022/09/13 02:58:27;;;;;;;;;4.50;4.50;;;;;20.90;67.71;100646.00;5072275;28;49821;-73
2022/09/13 03:00:54;;;;;;;;;2.25;2.00;;;;;20.87;67.98;100640.75;5072417;28;50085;-73
2022/09/13 03:03:19;;;;;;;;;4.25;3.25;;;;;20.76;68.01;100626.78;5072762;28;49868;-72
2022/09/13 03:05:45;;;;;;;;;5.25;5.25;;;;;20.40;67.54;100559.13;5071857;27;49921;-73
2022/09/13 03:08:14;;;;;;;;;4.25;4.25;;;;;20.72;67.53;100617.94;5072470;28;49860;-74
2022/09/13 03:11:01;;;;;;;;;5.00;3.50;;;;;20.88;67.83;100646.97;5072176;28;49649;-73
2022/09/13 03:13:39;;;;;;;;;4.00;4.00;;;;;20.84;66.77;100643.47;5072329;27;49610;-74
2022/09/13 03:16:10;;;;;;;;;4.75;4.75;;;;;20.89;66.94;100646.91;5072217;28;49981;-73
2022/09/13 03:18:47;;;;;;;;;2.75;2.75;;;;;20.89;67.08;100640.69;5072297;28;49974;-73
2022/09/13 03:21:32;;;;;;;;;4.00;4.00;;;;;20.88;66.51;100641.63;5071804;28;50169;-73
2022/09/13 03:24:25;;;;;;;;;3.75;3.75;;;;;20.90;66.68;100637.13;5072176;28;49752;-73
2022/09/13 03:27:13;;;;;;;;;2.75;2.75;;;;;20.89;66.04;100649.59;5066814;28;50964;-73
2022/09/13 03:30:03;;;;;;;;;3.25;3.25;;;;;20.90;66.12;100653.13;5072365;27;49966;-83
2022/09/13 03:32:34;;;;;;;;;4.00;2.00;;;;;20.84;65.95;100668.38;5066670;28;49711;-90
2022/09/13 03:35:17;;;;;;;;;3.50;3.50;;;;;20.70;66.21;100635.78;5074878;27;49899;-85
2022/09/13 03:38:13;;;;;;;;;3.00;3.00;;;;;20.91;66.54;100669.09;5072514;28;52616;-89
2022/09/13 03:40:47;;;;;;;;;3.00;3.00;;;;;20.92;66.62;100660.19;5061285;28;49989;-90
2022/09/13 03:43:17;;;;;;;;;2.25;1.50;;;;;20.86;66.81;100645.19;5073272;28;49806;-84
2022/09/13 03:45:54;;;;;;;;;6.00;4.00;;;;;20.67;68.32;100621.66;5074579;28;49819;-80
2022/09/13 03:48:21;;;;;;;;;4.00;4.00;;;;;20.90;68.14;100655.78;5073884;28;50778;-83
2022/09/13 03:50:48;;;;;;;;;4.25;3.25;;;;;19.83;68.20;100483.09;5074610;28;49886;-73
2022/09/13 03:53:19;;;;;;;;;4.00;4.00;;;;;20.82;68.53;100671.97;5074772;28;50067;-90
2022/09/13 03:55:45;;;;;;;;;4.25;3.75;;;;;20.92;68.75;100660.19;5074709;28;49616;-87
2022/09/13 03:58:12;;;;;;;;;4.00;4.00;;;;;20.93;68.65;100663.72;5074046;28;50702;-82
2022/09/13 04:00:39;;;;;;;;;4.25;4.00;;;;;20.22;68.47;100579.06;5074587;28;49998;-86
2022/09/13 04:03:05;;;;;;;;;3.00;3.00;;;;;20.58;68.51;100609.41;5073679;28;49855;-89
2022/09/13 04:05:30;;;;;;;;;2.00;2.00;;;;;20.88;68.95;100647.84;5078511;28;49772;-91
2022/09/13 04:07:55;;;;;;;;;4.00;3.50;;;;;19.54;68.88;100443.72;5078884;28;49614;-85
2022/09/13 04:10:23;;;;;;;;;3.75;3.25;;;;;20.88;69.22;100654.97;5078844;28;49785;-84
2022/09/13 04:12:48;;;;;;;;;1.50;1.50;;;;;20.05;69.81;100517.25;5081732;28;49592;-85
2022/09/13 04:15:15;;;;;;;;;3.50;3.50;;;;;20.78;69.67;100635.63;5086796;28;49771;-84
2022/09/13 04:17:40;;;;;;;;;3.00;3.00;;;;;20.61;70.27;100609.31;5072810;28;49887;-79
2022/09/13 04:20:06;;;;;;;;;2.50;2.50;;;;;20.63;70.22;100607.50;5070965;27;49910;-76
2022/09/13 04:22:32;;;;;;;;;4.00;3.00;;;;;20.72;69.90;100622.41;5080601;27;49835;-86
2022/09/13 04:24:57;;;;;;;;;5.50;4.50;;;;;20.51;68.28;100594.44;5067189;27;49706;-71
2022/09/13 04:27:24;;;;;;;;;4.75;4.75;;;;;20.83;68.73;100653.25;5071050;28;50438;-70
2022/09/13 04:29:49;;;;;;;;;4.50;4.50;;;;;20.52;69.03;100614.88;5072317;27;49854;-78
2022/09/13 04:32:15;;;;;;;;;6.50;3.75;;;;;20.81;69.92;100670.22;5074171;27;50066;-72
2022/09/13 04:34:40;;;;;;;;;3.00;3.00;;;;;20.78;69.61;100662.28;5071948;28;49830;-84
2022/09/13 04:37:05;;;;;;;;;5.00;5.00;;;;;20.42;69.85;100595.50;5068561;27;54410;-76
2022/09/13 04:39:31;;;;;;;;;5.00;5.00;;;;;20.89;70.09;100662.03;5067165;28;49840;-71
2022/09/13 04:41:57;;;;;;;;;5.00;5.00;;;;;20.80;69.85;100641.78;5076640;27;49621;-72
2022/09/13 04:44:23;;;;;;;;;4.25;4.25;;;;;20.79;69.95;100648.03;5072149;27;49864;-71
2022/09/13 04:46:49;;;;;;;;;5.00;3.50;;;;;20.90;69.55;100654.00;5068932;27;50857;-73
2022/09/13 04:49:18;;;;;;;;;4.75;4.75;;;;;20.89;68.02;100654.91;5069800;28;50264;-75
2022/09/13 04:51:45;;;;;;;;;3.25;3.25;;;;;20.90;69.00;100659.34;5069711;27;49707;-71
2022/09/13 04:54:11;;;;;;;;;5.00;4.75;;;;;20.71;68.94;100645.53;5069151;28;50023;-72
2022/09/13 04:56:37;;;;;;;;;7.25;6.25;;;;;20.64;69.13;100638.59;5068789;27;51313;-73
2022/09/13 04:59:02;;;;;;;;;6.00;6.00;;;;;20.46;69.28;100613.22;5069052;27;49759;-72
2022/09/13 05:01:31;;;;;;;;;6.75;5.50;;;;;20.89;69.13;100684.28;5069417;28;49909;-77
2022/09/13 05:03:58;;;;;;;;;5.50;5.25;;;;;20.89;69.53;100688.72;5072978;27;50001;-72
2022/09/13 05:06:23;;;;;;;;;10.50;7.25;;;;;20.83;70.25;100682.59;5084662;28;50154;-70
2022/09/13 05:08:53;;;;;;;;;6.75;6.75;;;;;20.79;70.05;100669.38;5084671;27;49332;-74
2022/09/13 05:11:19;;;;;;;;;6.25;5.25;;;;;20.76;70.00;100657.00;5084791;28;49718;-76
2022/09/13 05:13:53;;;;;;;;;5.50;5.50;;;;;20.53;70.37;100612.16;5088465;28;49415;-76
2022/09/13 05:16:23;;;;;;;;;6.00;6.00;;;;;20.78;70.57;100641.84;5086679;28;50403;-71
2022/09/13 05:18:50;;;;;;;;;4.75;4.75;;;;;20.85;70.53;100674.59;5085454;28;50133;-71
2022/09/13 05:21:16;;;;;;;;;6.25;6.25;;;;;20.72;70.94;100657.97;5085860;28;49314;-75
2022/09/13 05:23:42;;;;;;;;;3.75;3.75;;;;;20.80;71.02;100668.47;5087892;28;49459;-76
2022/09/13 05:26:07;;;;;;;;;8.00;6.25;;;;;20.40;71.10;100604.44;5085179;28;49570;-73
2022/09/13 05:28:34;;;;;;;;;6.00;4.75;;;;;20.82;70.92;100690.66;5086196;28;49470;-73
2022/09/13 05:31:05;;;;;;;;;8.75;8.50;;;;;20.44;71.27;100631.03;5085026;27;49766;-72
2022/09/13 05:33:33;;;;;;;;;7.75;7.75;;;;;20.74;71.26;100681.94;5083909;27;49263;-75
2022/09/13 05:35:59;;;;;;;;;8.75;8.25;;;;;20.62;71.16;100661.75;5074762;28;50407;-73
2022/09/13 05:38:25;;;;;;;;;8.25;8.25;;;;;20.66;71.44;100678.59;5082172;28;49819;-78
2022/09/13 05:40:55;;;;;;;;;13.50;8.50;;;;;20.63;70.90;100673.28;5088003;27;52377;-73
2022/09/13 05:43:22;;;;;;;;;9.25;8.00;;;;;20.46;70.49;100658.56;5088459;28;49563;-72
2022/09/13 05:45:48;;;;;;;;;8.50;8.25;;;;;20.60;71.07;100673.38;5086406;27;49569;-78
2022/09/13 05:48:13;;;;;;;;;6.75;6.75;;;;;20.66;70.55;100675.91;5081528;28;49686;-76
2022/09/13 05:50:39;;;;;;;;;10.50;7.75;;;;;20.66;70.49;100684.78;5084395;28;49526;-75
2022/09/13 05:53:05;;;;;;;;;6.00;6.00;;;;;20.63;70.41;100670.63;5084808;28;49717;-75
2022/09/13 05:55:31;;;;;;;;;6.50;5.50;;;;;20.44;70.14;100641.69;5086240;28;49493;-77
2022/09/13 05:57:57;;;;;;;;;5.75;5.75;;;;;19.66;69.99;100519.84;5086973;28;49218;-75
2022/09/13 06:00:22;;;;;;;;;5.00;5.00;;;;;20.67;69.91;100673.22;5085978;28;49401;-75
2022/09/13 06:02:48;;;;;;;;;4.00;4.00;;;;;20.01;70.20;100589.28;5086601;27;49650;-75
2022/09/13 06:05:13;;;;;;;;;6.00;6.00;;;;;20.70;70.06;100669.59;5074669;28;49758;-75
2022/09/13 06:07:42;;;;;;;;;5.50;5.50;;;;;20.71;70.02;100663.34;5076381;27;49926;-80
2022/09/13 06:10:09;;;;;;;;;9.25;8.75;;;;;20.22;69.51;100590.59;5073149;28;49600;-78
2022/09/13 06:12:34;;;;;;;;;6.25;4.75;;;;;20.73;69.81;100665.06;5066147;28;50001;-77
2022/09/13 06:15:00;;;;;;;;;6.25;5.25;;;;;20.70;69.76;100637.56;5071569;27;50341;-77
2022/09/13 06:17:25;;;;;;;;;9.50;7.00;;;;;20.76;69.64;100645.47;5072803;28;49736;-77
2022/09/13 06:19:50;;;;;;;;;6.25;6.25;;;;;20.75;69.96;100631.25;5072956;27;49817;-77
2022/09/13 06:22:16;;;;;;;;;9.75;8.50;;;;;20.66;69.89;100614.56;5072896;28;50105;-77
2022/09/13 06:24:41;;;;;;;;;8.50;8.50;;;;;20.08;69.03;100518.09;5070892;28;50777;-77
2022/09/13 06:27:09;;;;;;;;;7.75;7.75;;;;;20.31;68.96;100544.22;5071829;28;49951;-75
2022/09/13 06:29:34;;;;;;;;;7.50;7.25;;;;;20.76;68.93;100613.44;5071415;28;50080;-77
2022/09/13 06:31:59;;;;;;;;;10.00;10.00;;;;;20.86;68.52;100617.66;5071404;28;49969;-76
2022/09/13 06:34:25;;;;;;;;;7.00;6.75;;;;;21.04;67.94;100641.22;5071568;28;52948;-75
2022/09/13 06:36:50;;;;;;;;;4.75;4.25;;;;;21.10;67.61;100627.72;5072128;27;49780;-76
2022/09/13 06:39:16;;;;;;;;;7.50;7.50;;;;;20.80;67.06;100557.28;5073177;28;50229;-76
2022/09/13 06:41:41;;;;;;;;;7.25;7.25;;;;;20.96;66.88;100587.16;5073612;28;50019;-76
2022/09/13 06:44:08;;;;;;;;;6.75;5.50;;;;;20.96;66.80;100555.13;5072868;28;50224;-77
2022/09/13 06:46:34;;;;;;;;;7.75;6.50;;;;;21.13;65.89;100568.03;5073044;28;49706;-76
2022/09/13 06:49:02;;;;;;;;;7.75;7.00;;;;;21.48;65.76;100598.31;5072967;27;49773;-77
2022/09/13 06:51:31;;;;;;;;;6.50;6.00;;;;;21.28;65.53;100567.69;5072820;28;50055;-75
2022/09/13 06:53:57;;;;;;;;;6.00;6.00;;;;;21.52;65.04;100571.50;5073019;27;49794;-75
2022/09/13 06:56:25;;;;;;;;;6.25;6.25;;;;;21.62;64.65;100586.34;5073342;28;49723;-75
2022/09/13 06:58:55;;;;;;;;;8.25;6.75;;;;;21.75;64.75;100576.19;5072985;28;49602;-75
2022/09/13 07:01:23;;;;;;;;;11.25;11.25;;;;;21.68;64.29;100540.75;5072855;28;49862;-75
2022/09/13 07:03:53;;;;;;;;;9.50;9.50;;;;;21.84;63.91;100551.03;5072337;28;50708;-75
2022/09/13 07:06:26;;;;;;;;;9.75;7.25;;;;;21.61;63.79;100490.22;5072525;28;49892;-74
2022/09/13 07:08:52;;;;;;;;;6.75;5.50;;;;;22.01;62.55;100548.72;5072820;28;49597;-75
2022/09/13 07:11:20;;;;;;;;;7.25;7.25;;;;;22.10;61.98;100560.97;5072853;28;50041;-75
2022/09/13 07:13:50;;;;;;;;;7.00;7.00;;;;;21.47;61.72;100439.00;5072638;28;49818;-74
2022/09/13 07:16:16;;;;;;;;;5.25;5.25;;;;;22.17;61.74;100547.38;5072295;28;49760;-75
2022/09/13 07:18:42;;;;;;;;;4.75;4.75;;;;;22.19;61.64;100547.31;5071319;28;49654;-75
2022/09/13 07:21:09;;;;;;;;;9.50;7.25;;;;;21.88;61.76;100493.88;5072241;28;49876;-75
2022/09/13 07:23:36;;;;;;;;;8.50;5.00;;;;;22.16;61.45;100552.75;5072326;28;50428;-75
2022/09/13 07:26:06;;;;;;;;;7.25;5.75;;;;;22.14;61.56;100550.13;5072495;27;49802;-75
2022/09/13 07:28:39;;;;;;;;;6.00;5.00;;;;;22.14;61.73;100549.28;5072397;27;49550;-75
2022/09/13 07:31:16;;;;;;;;;5.00;5.00;;;;;22.18;61.78;100556.25;5072726;28;49619;-75
2022/09/13 07:33:43;;;;;;;;;5.25;5.00;;;;;22.19;61.46;100548.19;5072228;28;50946;-75
2022/09/13 07:36:10;;;;;;;;;7.50;7.50;;;;;22.19;61.72;100545.50;5072102;28;49859;-75
2022/09/13 07:38:40;;;;;;;;;9.75;7.00;;;;;22.24;61.11;100546.25;5072310;28;49849;-76
2022/09/13 07:41:08;;;;;;;;;13.00;9.75;;;;;22.37;61.33;100554.78;5072302;28;49700;-75
2022/09/13 07:43:35;;;;;;;;;11.75;7.75;;;;;22.44;60.83;100567.03;5071861;28;49924;-75
2022/09/13 07:46:03;;;;;;;;;7.50;7.50;;;;;22.17;60.77;100503.72;5072280;28;49869;-75
2022/09/13 07:48:30;;;;;;;;;9.00;6.00;;;;;22.34;60.60;100528.13;5072168;28;49862;-75
2022/09/13 07:51:04;;;;;;;;;8.00;7.25;;;;;22.68;60.91;100568.09;5071858;28;50482;-75
2022/09/13 07:53:31;;;;;;;;;8.00;6.50;;;;;22.69;60.92;100552.91;5072114;28;50372;-75
2022/09/13 07:56:07;;;;;;;;;9.50;9.50;;;;;22.92;60.56;100561.06;5069927;27;49747;-75
2022/09/13 07:58:34;;;;;;;;;5.75;5.00;;;;;23.00;59.82;100560.81;5071281;27;49815;-75
2022/09/13 08:01:12;;;;;;;;;10.00;8.00;;;;;23.09;59.60;100553.34;5069979;28;49988;-75
2022/09/13 08:03:38;;;;;;;;;7.75;7.00;;;;;23.22;58.82;100559.16;5071762;28;50977;-75
2022/09/13 08:06:04;;;;;;;;;4.50;4.50;;;;;23.21;58.77;100537.78;5071596;28;49794;-75
2022/09/13 08:08:31;;;;;;;;;9.25;7.75;;;;;22.93;58.18;100492.34;5072007;28;49699;-75
2022/09/13 08:10:56;;;;;;;;;5.75;5.75;;;;;22.39;57.89;100392.50;5072148;28;50070;-76
2022/09/13 08:13:22;;;;;;;;;8.75;6.75;;;;;22.60;57.79;100412.28;5071443;28;50627;-75
2022/09/13 08:15:48;;;;;;;;;6.50;5.00;;;;;22.85;57.54;100423.88;5065202;28;49736;-75
2022/09/13 08:18:14;;;;;;;;;6.25;5.25;;;;;23.69;57.27;100548.59;5071708;28;49819;-75
2022/09/13 08:20:40;;;;;;;;;8.25;7.00;;;;;22.84;57.36;100392.72;5071337;28;49774;-75
2022/09/13 08:23:06;;;;;;;;;5.75;5.75;;;;;23.68;56.69;100509.31;5070136;28;51491;-75
2022/09/13 08:25:36;;;;;;;;;6.75;5.75;;;;;23.98;56.72;100540.34;5071759;28;49860;-77
2022/09/13 08:28:06;;;;;;;;;7.75;7.50;;;;;24.08;56.41;100542.66;5070768;28;49864;-76
2022/09/13 08:30:34;;;;;;;;;5.75;5.75;;;;;23.86;56.22;100505.97;5071832;28;49934;-77
2022/09/13 08:33:01;;;;;;;;;7.75;6.25;;;;;24.19;55.79;100525.22;5071169;28;50355;-77
2022/09/13 08:35:27;;;;;;;;;7.00;5.00;;;;;24.22;55.71;100513.50;5070986;28;49618;-77
2022/09/13 08:37:52;;;;;;;;;10.00;10.00;;;;;24.37;55.08;100528.16;5071307;28;49633;-76
2022/09/13 08:40:18;;;;;;;;;8.25;6.00;;;;;24.19;55.36;100500.22;5071588;28;49750;-77
2022/09/13 08:43:01;;;;;;;;;8.00;8.00;;;;;23.78;54.84;100424.09;5071035;28;49817;-76
2022/09/13 08:45:26;;;;;;;;;10.75;8.50;;;;;24.28;54.77;100527.53;5065590;28;49620;-77
2022/09/13 08:48:00;;;;;;;;;11.25;8.50;;;;;24.63;54.70;100559.31;5071127;28;50042;-76
2022/09/13 08:50:30;;;;;;;;;6.00;6.00;;;;;24.42;54.63;100521.69;5065886;28;49838;-77
2022/09/13 08:53:22;;;;;;;;;8.25;8.00;;;;;24.74;54.73;100567.81;5070916;27;50008;-76
2022/09/13 08:56:23;;;;;;;;;8.00;8.00;;;;;24.78;54.38;100572.97;5070933;28;49764;-77
2022/09/13 08:59:07;;;;;;;;;6.50;6.50;;;;;24.84;54.50;100579.91;5061705;27;50328;-77
2022/09/13 09:01:41;;;;;;;;;6.50;5.75;;;;;24.88;53.83;100581.53;5071145;27;49765;-77
2022/09/13 09:04:14;;;;;;;;;6.25;5.75;;;;;24.22;54.10;100473.25;5070881;28;49925;-77
2022/09/13 09:06:41;;;;;;;;;7.00;7.00;;;;;24.06;53.03;100419.38;5070897;28;49886;-77
2022/09/13 09:09:21;;;;;;;;;4.00;4.00;;;;;24.23;53.52;100448.22;5070892;28;49797;-77
2022/09/13 09:12:15;;;;;;;;;7.25;5.25;;;;;25.17;52.77;100580.34;5071020;28;49758;-78
2022/09/13 09:14:46;;;;;;;;;6.75;6.75;;;;;25.22;52.20;100588.22;5070574;28;50614;-78
2022/09/13 09:17:28;;;;;;;;;6.50;6.50;;;;;25.24;51.94;100600.66;5071086;28;49747;-77
2022/09/13 09:20:05;;;;;;;;;5.00;4.75;;;;;24.27;51.32;100428.38;5070884;28;49715;-77
2022/09/13 09:22:33;;;;;;;;;8.00;6.00;;;;;24.65;52.05;100509.13;5065764;28;50002;-76
2022/09/13 09:24:59;;;;;;;;;5.50;3.50;;;;;24.82;52.81;100546.91;5070574;28;50536;-75
2022/09/13 09:27:25;;;;;;;;;5.25;4.75;;;;;25.03;52.18;100589.00;5070609;28;49922;-76
2022/09/13 09:29:53;;;;;;;;;4.50;4.50;;;;;25.06;53.37;100596.91;5070513;28;49938;-76
2022/09/13 09:32:40;;;;;;;;;3.75;3.50;;;;;25.10;54.10;100586.94;5070735;28;49831;-75
2022/09/13 09:35:14;;;;;;;;;7.00;6.00;;;;;25.13;54.10;100593.97;5070281;27;51159;-76
2022/09/13 09:37:41;;;;;;;;;4.75;4.00;;;;;25.23;53.63;100592.66;5070526;28;49677;-75
2022/09/13 09:40:12;;;;;;;;;4.50;3.00;;;;;25.20;54.75;100564.13;5072799;28;49870;-75
2022/09/13 09:42:46;;;;;;;;;5.00;5.00;;;;;24.78;54.48;100483.50;5074500;28;50004;-75
2022/09/13 09:45:29;;;;;;;;;4.00;3.50;;;;;25.64;54.00;100585.47;5073975;28;50075;-75
2022/09/13 09:47:58;;;;;;;;;4.50;4.50;;;;;25.77;53.31;100594.78;5068055;28;49807;-74
2022/09/13 09:50:28;;;;;;;;;3.50;3.50;;;;;25.90;52.48;100606.75;5073826;28;50116;-76
2022/09/13 09:53:28;;;;;;;;;5.00;3.25;;;;;26.01;52.61;100608.06;5074078;28;49786;-75
2022/09/13 09:55:59;;;;;;;;;3.50;3.50;;;;;25.73;52.20;100550.16;5073866;27;49930;-76
2022/09/13 09:58:42;;;;;;;;;4.25;4.25;;;;;26.17;52.00;100604.63;5073868;28;49749;-75
2022/09/13 10:01:18;;;;;;;;;3.50;3.50;;;;;26.19;51.79;100605.41;5072469;27;49740;-76
2022/09/13 10:03:52;;;;;;;;;6.00;5.00;;;;;25.56;50.71;100531.19;5073882;28;49824;-76
2022/09/13 10:06:22;;;;;;;;;3.75;3.75;;;;;26.24;51.39;100597.09;5073198;28;49690;-75
2022/09/13 10:08:56;;;;;;;;;4.25;4.25;;;;;26.16;50.75;100588.53;5073522;28;49766;-73
2022/09/13 10:11:21;;;;;;;;;3.50;3.00;;;;;25.32;49.99;100450.72;5073705;28;49595;-74
2022/09/13 10:14:01;;;;;;;;;3.00;3.00;;;;;25.35;49.62;100439.84;5073922;28;49781;-73
2022/09/13 10:16:29;;;;;;;;;2.50;2.50;;;;;26.16;48.67;100558.94;5073807;28;50302;-74
2022/09/13 10:19:22;;;;;;;;;3.00;3.00;;;;;26.55;49.38;100609.19;5073701;27;49814;-74
2022/09/13 10:22:04;;;;;;;;;3.75;3.75;;;;;26.49;49.42;100586.97;5073227;28;49672;-74
2022/09/13 10:24:31;;;;;;;;;5.00;5.00;;;;;26.43;48.69;100562.16;5073578;28;49630;-74
2022/09/13 10:26:58;;;;;;;;;5.25;4.00;;;;;25.80;48.95;100430.63;5073314;27;49889;-74
2022/09/13 10:29:26;;;;;;;;;3.25;2.75;;;;;27.01;48.96;100622.13;5073471;28;50099;-73
2022/09/13 10:31:56;;;;;;;;;5.00;5.00;;;;;27.05;48.06;100620.22;5073210;27;49616;-74
2022/09/13 10:34:28;;;;;;;;;3.25;3.25;;;;;27.07;48.36;100616.47;5073562;28;49844;-74
2022/09/13 10:37:13;;;;;;;;;4.00;3.00;;;;;27.07;48.65;100599.44;5072744;27;49880;-76
2022/09/13 10:39:55;;;;;;;;;3.50;3.50;;;;;26.28;48.47;100477.63;5072868;28;49806;-74
2022/09/13 10:42:23;;;;;;;;;6.00;6.00;;;;;27.36;48.91;100616.84;5074064;27;49965;-72
2022/09/13 10:44:57;;;;;;;;;7.75;7.00;;;;;27.47;49.10;100606.38;5085623;27;49720;-71
2022/09/13 10:47:38;;;;;;;;;10.25;6.25;;;;;27.54;48.32;100602.41;5085327;27;49744;-70
2022/09/13 10:50:17;;;;;;;;;8.75;8.00;;;;;27.63;48.07;100606.47;5082238;27;49799;-71
2022/09/13 10:52:48;;;;;;;;;5.00;5.00;;;;;27.52;47.92;100584.56;5073110;28;49894;-71
2022/09/13 10:55:20;;;;;;;;;8.50;6.25;;;;;27.60;47.94;100595.81;5068678;27;49817;-75
2022/09/13 10:58:00;;;;;;;;;6.25;6.25;;;;;27.53;48.24;100597.09;5078670;27;49843;-76
2022/09/13 11:01:04;;;;;;;;;7.75;7.00;;;;;27.07;48.58;100524.88;5068989;28;49826;-76
2022/09/13 11:03:52;;;;;;;;;6.25;6.25;;;;;27.46;48.43;100603.75;5062459;27;49812;-76
2022/09/13 11:06:36;;;;;;;;;10.50;9.00;;;;;27.46;47.99;100599.22;5082259;27;49711;-75
2022/09/13 11:09:17;;;;;;;;;6.50;6.00;;;;;27.47;48.50;100595.59;5076854;27;50014;-74
2022/09/13 11:12:09;;;;;;;;;5.00;5.00;;;;;27.58;48.15;100587.81;5067223;28;49695;-76
2022/09/13 11:14:37;;;;;;;;;5.00;5.00;;;;;27.77;47.30;100595.81;5070536;28;50033;-75
2022/09/13 11:17:25;;;;;;;;;7.00;6.00;;;;;27.92;47.20;100597.72;5073313;28;49803;-76
2022/09/13 11:20:31;;;;;;;;;6.00;6.00;;;;;27.93;46.23;100588.66;5064840;28;50169;-75
2022/09/13 11:23:40;;;;;;;;;4.50;4.50;;;;;26.93;46.32;100443.00;5050403;28;50101;-76
2022/09/13 11:26:11;;;;;;;;;3.75;3.75;;;;;27.94;46.38;100597.63;5090592;27;49640;-76
2022/09/13 11:28:58;;;;;;;;;5.75;5.00;;;;;27.86;46.31;100594.47;5072525;28;49728;-76
2022/09/13 11:32:25;;;;;;;;;3.75;3.50;;;;;27.73;45.79;100582.59;5066284;28;50888;-77
2022/09/13 11:35:16;;;;;;;;;5.00;5.00;;;;;27.64;45.74;100587.50;5049356;28;49954;-77
2022/09/13 11:38:02;;;;;;;;;4.50;4.50;;;;;27.55;46.06;100570.94;5049095;28;49852;-76
2022/09/13 11:40:45;;;;;;;;;3.25;3.25;;;;;27.06;45.86;100504.28;5070654;28;49813;-76
2022/09/13 11:43:29;;;;;;;;;3.75;3.75;;;;;27.41;45.53;100566.28;5071919;28;49723;-76
2022/09/13 11:46:00;;;;;;;;;4.00;4.00;;;;;27.41;45.84;100562.66;5072209;27;49791;-76
2022/09/13 11:48:41;;;;;;;;;2.50;2.50;;;;;27.39;45.67;100565.44;5072303;28;49831;-76